Victoria M — V7JG8 — position and weather

sailwx.info

Track history (hours):
 
Tides and Currents Weather Stations Pressure Air Temp Water Temp Dewpoint Dewpoint Depression Visibility Wind Speed Wind Dir Waves Ship Positions

Victoria M

Last reported at 2017-Sep-18 14:25 UTC. Time now 2017-Sep-22 19:12 UTC.
Position N 40°44' E 029°11'.

Length 185 m.

MMSI: 538002516.

Date/timePositionNaut miles runAvg speedWind from/ knotsBaromVisibWave heightAir tempDewpointWater temp
2017-Sep-18 14:25N 40°44' E 029°11'712.8
2017-Sep-18 13:53N 40°44' E 029°02'9412.2
2017-Sep-18 06:09N 40°30' E 026°59'3312.0
2017-Sep-18 03:26N 40°12' E 026°23'1210.4
2017-Sep-18 02:16N 40°02' E 026°15'3 9.5
2017-Sep-18 02:00N 40°01' E 026°11'3 4.9
2017-Sep-18 01:22N 40°00' E 026°08'710.3
2017-Sep-18 00:44N 39°58' E 025°60'210.6
2017-Sep-18 00:30N 39°56' E 025°57'6 9.9
2017-Sep-17 23:53N 39°51' E 025°52'4 9.8
2017-Sep-17 23:30N 39°48' E 025°50'510.2
2017-Sep-17 23:00N 39°44' E 025°46'510.9
2017-Sep-17 22:30N 39°39' E 025°43'5111.4
2017-Sep-17 18:03N 38°54' E 025°12'111.6
2017-Sep-17 17:58N 38°53' E 025°12'1711.6
2017-Sep-17 16:33N 38°38' E 025°03'3012.1
2017-Sep-17 14:03N 38°11' E 024°46'112.1
2017-Sep-17 13:59N 38°10' E 024°46'3112.1
2017-Sep-17 11:24N 37°46' E 024°22'2112.1
2017-Sep-17 09:42N 37°29' E 024°05'212.5
2017-Sep-17 09:30N 37°27' E 024°04'612.7
2017-Sep-17 09:00N 37°22' E 023°60'612.7
2017-Sep-17 08:30N 37°17' E 023°56'612.8
2017-Sep-17 08:00N 37°11' E 023°51'612.5
2017-Sep-17 07:30N 37°06' E 023°47'612.3
2017-Sep-17 07:00N 37°01' E 023°43'612.2
2017-Sep-17 06:30N 36°56' E 023°39'612.1
2017-Sep-17 06:00N 36°50' E 023°35'612.3
2017-Sep-17 05:30N 36°45' E 023°31'612.3
2017-Sep-17 05:00N 36°40' E 023°28'612.5
2017-Sep-17 04:30N 36°34' E 023°23'712.7
2017-Sep-17 03:59N 36°29' E 023°19'612.4
2017-Sep-17 03:28N 36°24' E 023°14'5212.3
2017-Sep-16 23:12N 36°21' E 022°09'313.2
2017-Sep-16 23:00N 36°21' E 022°05'713.2
2017-Sep-16 22:30N 36°21' E 021°57'613.0
2017-Sep-16 22:00N 36°20' E 021°49'1313.4
2017-Sep-16 21:01N 36°21' E 021°33'013.1
2017-Sep-16 21:00N 36°21' E 021°33'713.4
2017-Sep-16 20:30N 36°21' E 021°24'1613.1
2017-Sep-16 19:16N 36°21' E 021°04'612.9
2017-Sep-16 18:46N 36°20' E 020°56'413.0
2017-Sep-16 18:30N 36°20' E 020°52'712.7
2017-Sep-16 17:55N 36°20' E 020°43'912.8
2017-Sep-16 17:11N 36°20' E 020°31'213.0
2017-Sep-16 17:00N 36°20' E 020°28'612.8
2017-Sep-16 16:30N 36°20' E 020°20'612.7
2017-Sep-16 16:01N 36°20' E 020°12'812.7
2017-Sep-16 15:23N 36°20' E 020°03'812.8
2017-Sep-16 14:48N 36°20' E 019°53'413.1
2017-Sep-16 14:30N 36°21' E 019°48'612.9
2017-Sep-16 14:00N 36°21' E 019°40'713.0
2017-Sep-16 13:28N 36°21' E 019°32'1012.9
2017-Sep-16 12:44N 36°21' E 019°20'1112.7
2017-Sep-16 11:52N 36°21' E 019°06'612.5
2017-Sep-16 11:23N 36°21' E 018°59'912.5
2017-Sep-16 10:39N 36°21' E 018°47'212.5
2017-Sep-16 10:30N 36°21' E 018°45'3812.7
2017-Sep-16 07:32N 36°20' E 017°58'012.7
2017-Sep-16 07:30N 36°20' E 017°58'3512.4
2017-Sep-16 04:41N 36°20' E 017°15'312.5
2017-Sep-16 04:29N 36°20' E 017°11'1512.5
2017-Sep-16 03:18N 36°20' E 016°53'1512.6
2017-Sep-16 02:05N 36°20' E 016°34'212.6
2017-Sep-16 01:55N 36°20' E 016°31'512.5
2017-Sep-16 01:29N 36°20' E 016°25'2912.3
2017-Sep-15 23:05N 36°20' E 015°48'112.0
2017-Sep-15 23:00N 36°20' E 015°47'612.0
2017-Sep-15 22:29N 36°20' E 015°39'612.1
2017-Sep-15 22:00N 36°20' E 015°32'612.3
2017-Sep-15 21:30N 36°21' E 015°24'612.7
2017-Sep-15 21:00N 36°20' E 015°16'613.2
2017-Sep-15 20:30N 36°20' E 015°08'713.4
2017-Sep-15 20:00N 36°20' E 014°60'713.5
2017-Sep-15 19:30N 36°20' E 014°52'713.4
2017-Sep-15 19:00N 36°23' E 014°44'713.6
2017-Sep-15 18:30N 36°26' E 014°36'713.1
2017-Sep-15 18:00N 36°29' E 014°29'613.0
2017-Sep-15 17:30N 36°32' E 014°22'612.9
2017-Sep-15 17:00N 36°34' E 014°15'713.2
2017-Sep-15 16:30N 36°37' E 014°07'713.5
2017-Sep-15 16:00N 36°41' E 013°60'713.5
2017-Sep-15 15:30N 36°44' E 013°53'713.3
2017-Sep-15 15:00N 36°47' E 013°45'713.3
2017-Sep-15 14:30N 36°50' E 013°38'913.1
2017-Sep-15 13:51N 36°54' E 013°28'513.2
2017-Sep-15 13:30N 36°56' E 013°23'612.9
2017-Sep-15 13:00N 36°59' E 013°16'612.6
2017-Sep-15 12:29N 37°02' E 013°09'2412.8
2017-Sep-15 10:38N 37°13' E 012°43'4112.5
2017-Sep-15 07:23N 37°38' E 012°02'  
2017-Sep-12 22:54N 42°51' E 009°60'5 9.0
2017-Sep-12 22:23N 42°55' E 010°02'3 8.4
2017-Sep-12 22:00N 42°58' E 010°03'3 5.2
2017-Sep-12 21:30N 43°01' E 010°04'5 9.4
2017-Sep-12 21:00N 43°05' E 010°07'611.7
2017-Sep-12 20:30N 43°11' E 010°10'611.0
2017-Sep-12 20:00N 43°16' E 010°12'510.5
2017-Sep-12 19:30N 43°21' E 010°15'510.3
2017-Sep-12 19:00N 43°26' E 010°15'2 5.0
2017-Sep-12 18:30N 43°28' E 010°15'1 1.1
2017-Sep-12 18:00N 43°28' E 010°15'2 4.7
2017-Sep-12 17:30N 43°26' E 010°14'1 1.0
2017-Sep-12 17:00N 43°26' E 010°15'0 1.0
2017-Sep-12 16:30N 43°26' E 010°15'0 0.8
2017-Sep-12 16:00N 43°27' E 010°15'0 0.9
2017-Sep-12 15:30N 43°27' E 010°16'0 0.6
2017-Sep-12 15:00N 43°27' E 010°16'1 1.4
2017-Sep-12 14:30N 43°28' E 010°16'1 2.3
2017-Sep-12 14:00N 43°29' E 010°16'2 3.9
2017-Sep-12 13:30N 43°27' E 010°15'1 3.0
2017-Sep-12 13:00N 43°26' E 010°15'1 2.4
2017-Sep-12 12:30N 43°27' E 010°16'1 2.4
2017-Sep-12 12:00N 43°28' E 010°16'1 2.3
2017-Sep-12 11:30N 43°29' E 010°17'2 4.9
2017-Sep-12 11:00N 43°27' E 010°16'1 2.4
2017-Sep-12 10:30N 43°25' E 010°15'1 2.7
2017-Sep-12 10:00N 43°27' E 010°16'1 2.3
2017-Sep-12 09:30N 43°28' E 010°16'2 3.4
2017-Sep-12 09:00N 43°30' E 010°17'1 1.1
2017-Sep-12 08:26N 43°30' E 010°17'0 0.2
2017-Sep-12 07:59N 43°30' E 010°17'0 0.1
2017-Sep-12 07:26N 43°30' E 010°17'0 0.0
2017-Sep-12 06:59N 43°30' E 010°17'0 0.0
2017-Sep-12 06:29N 43°30' E 010°17'0 0.1
2017-Sep-12 05:56N 43°30' E 010°17'0 0.1
2017-Sep-12 05:29N 43°30' E 010°17'0 0.4
2017-Sep-12 05:00N 43°30' E 010°17'1 1.2
2017-Sep-12 04:28N 43°30' E 010°18'0 0.3
2017-Sep-12 03:58N 43°30' E 010°18'0 0.3
2017-Sep-12 03:28N 43°30' E 010°17'0 0.1
2017-Sep-12 02:58N 43°30' E 010°17'0 0.2
2017-Sep-12 02:25N 43°30' E 010°17'0 0.1
2017-Sep-12 01:55N 43°30' E 010°17'0 0.1
2017-Sep-12 01:28N 43°30' E 010°17'0 0.0
2017-Sep-12 00:58N 43°30' E 010°17'0 0.2
2017-Sep-12 00:28N 43°30' E 010°17'0 0.1
2017-Sep-11 23:58N 43°30' E 010°17'0 0.0
2017-Sep-11 23:28N 43°30' E 010°17'0 0.1
2017-Sep-11 22:58N 43°30' E 010°17'0 0.1
2017-Sep-11 22:28N 43°30' E 010°17'0 0.0
2017-Sep-11 21:58N 43°30' E 010°17'0 0.0
2017-Sep-11 21:28N 43°30' E 010°17'0 0.0
2017-Sep-11 20:58N 43°30' E 010°17'0 0.0
2017-Sep-11 20:25N 43°30' E 010°17'0 0.0
2017-Sep-11 19:55N 43°30' E 010°17'0 0.0
2017-Sep-11 19:28N 43°30' E 010°17'0 0.0
2017-Sep-11 18:55N 43°30' E 010°17'0 0.0
2017-Sep-11 18:28N 43°30' E 010°17'0 0.0
2017-Sep-11 17:58N 43°30' E 010°17'0 0.0
2017-Sep-11 17:28N 43°30' E 010°17'0 0.0
2017-Sep-11 16:49N 43°30' E 010°17'0 0.1
2017-Sep-11 16:28N 43°30' E 010°17'0 0.0
2017-Sep-11 15:55N 43°30' E 010°17'0 0.0
2017-Sep-11 15:28N 43°30' E 010°17'0 0.0
2017-Sep-11 14:55N 43°30' E 010°17'0 0.0
2017-Sep-11 14:28N 43°30' E 010°17'0 0.0
2017-Sep-11 13:55N 43°30' E 010°17'0 0.0
2017-Sep-11 13:25N 43°30' E 010°17'0 0.0
2017-Sep-11 12:58N 43°30' E 010°17'0 0.1
2017-Sep-11 12:28N 43°30' E 010°17'0 0.0
2017-Sep-11 11:58N 43°30' E 010°17'0 0.0
2017-Sep-11 11:28N 43°30' E 010°17'0 0.0
2017-Sep-11 10:58N 43°30' E 010°17'0 0.0
2017-Sep-11 10:28N 43°30' E 010°17'0 0.1
2017-Sep-11 09:58N 43°30' E 010°17'0 0.2
2017-Sep-11 09:28N 43°30' E 010°17'0 0.0
2017-Sep-11 08:58N 43°30' E 010°17'0 0.0
2017-Sep-11 08:25N 43°30' E 010°17'0 0.0
2017-Sep-11 07:58N 43°30' E 010°17'0 0.0
2017-Sep-11 07:28N 43°30' E 010°17'0 0.1
2017-Sep-11 06:58N 43°30' E 010°17'0 0.0
2017-Sep-11 06:25N 43°30' E 010°17'0 0.0
2017-Sep-11 05:58N 43°30' E 010°17'0 0.1
2017-Sep-11 05:13N 43°30' E 010°17'0 0.1
2017-Sep-11 04:58N 43°30' E 010°17'0 0.0
2017-Sep-11 04:28N 43°30' E 010°17'0 0.1
2017-Sep-11 03:58N 43°30' E 010°17'0 0.1
2017-Sep-11 03:28N 43°30' E 010°17'0 0.0
2017-Sep-11 02:58N 43°30' E 010°17'0 0.3
2017-Sep-11 02:28N 43°30' E 010°17'0 0.0
2017-Sep-11 01:58N 43°30' E 010°17'0 0.0
2017-Sep-11 01:28N 43°30' E 010°17'0 0.0
2017-Sep-11 00:58N 43°30' E 010°17'0 0.0
2017-Sep-11 00:28N 43°30' E 010°17'0 0.0
2017-Sep-10 23:58N 43°30' E 010°17'0 0.0
2017-Sep-10 23:28N 43°30' E 010°17'0 0.0
2017-Sep-10 22:58N 43°30' E 010°17'0 0.1
2017-Sep-10 22:28N 43°30' E 010°17'0 0.1
2017-Sep-10 21:58N 43°30' E 010°17'0 0.1
2017-Sep-10 21:25N 43°30' E 010°17'0 0.1
2017-Sep-10 20:58N 43°30' E 010°17'0 0.0
2017-Sep-10 20:25N 43°30' E 010°17'0 0.0
2017-Sep-10 19:58N 43°30' E 010°17'0 0.0
2017-Sep-10 19:28N 43°30' E 010°17'0 0.0
2017-Sep-10 18:58N 43°30' E 010°17'0 0.0
2017-Sep-10 18:28N 43°30' E 010°17'0 0.1
2017-Sep-10 17:58N 43°30' E 010°17'0 0.0
2017-Sep-10 17:25N 43°30' E 010°17'0 0.1
2017-Sep-10 16:58N 43°30' E 010°17'0 0.1
2017-Sep-10 16:28N 43°30' E 010°17'0 0.1
2017-Sep-10 15:58N 43°30' E 010°17'0 0.0
2017-Sep-10 15:25N 43°30' E 010°17'0 0.0
2017-Sep-10 14:55N 43°30' E 010°17'0 0.0
2017-Sep-10 13:58N 43°30' E 010°17'0 0.2
2017-Sep-10 13:28N 43°30' E 010°17'0 0.0
2017-Sep-10 12:58N 43°30' E 010°17'0 0.0
2017-Sep-10 12:28N 43°30' E 010°17'0 0.1
2017-Sep-10 11:58N 43°30' E 010°17'0 0.0
2017-Sep-10 11:28N 43°30' E 010°17'0 0.0
2017-Sep-10 10:55N 43°30' E 010°17'0 0.1
2017-Sep-10 10:28N 43°30' E 010°17'0 0.2
2017-Sep-10 09:58N 43°30' E 010°17'0 0.1
2017-Sep-10 09:28N 43°30' E 010°17'0 0.0
2017-Sep-10 08:58N 43°30' E 010°17'0 0.0
2017-Sep-10 08:28N 43°30' E 010°17'0 0.0
2017-Sep-10 07:58N 43°30' E 010°17'0 0.0
2017-Sep-10 07:28N 43°30' E 010°17'0 0.0
2017-Sep-10 06:58N 43°30' E 010°17'0 0.1
2017-Sep-10 06:28N 43°30' E 010°17'0 0.0
2017-Sep-10 05:58N 43°30' E 010°17'0 0.2
2017-Sep-10 05:28N 43°30' E 010°17'0 0.1
2017-Sep-10 04:58N 43°30' E 010°17'0 0.0
2017-Sep-10 04:25N 43°30' E 010°17'0 0.0
2017-Sep-10 03:58N 43°30' E 010°17'0 0.0
2017-Sep-10 03:28N 43°30' E 010°17'0 0.1
2017-Sep-10 02:58N 43°30' E 010°17'0 0.0
2017-Sep-10 02:28N 43°30' E 010°17'0 0.1
2017-Sep-10 01:58N 43°30' E 010°17'0 0.0
2017-Sep-10 01:28N 43°30' E 010°17'0 0.1
2017-Sep-10 00:58N 43°30' E 010°17'0 0.0
2017-Sep-10 00:28N 43°30' E 010°17'0 0.1
2017-Sep-09 23:58N 43°30' E 010°17'0 0.1
2017-Sep-09 23:28N 43°30' E 010°17'0 0.0
2017-Sep-09 22:58N 43°30' E 010°17'0 0.0
2017-Sep-09 22:28N 43°30' E 010°17'0 0.1
2017-Sep-09 21:58N 43°30' E 010°17'0 0.0
2017-Sep-09 21:28N 43°30' E 010°17'0 0.0
2017-Sep-09 20:55N 43°30' E 010°17'0 0.0
2017-Sep-09 20:28N 43°30' E 010°17'0 0.0
2017-Sep-09 19:58N 43°30' E 010°17'0 0.0
2017-Sep-09 19:25N 43°30' E 010°17'0 0.0
2017-Sep-09 18:49N 43°30' E 010°17'0 0.1
2017-Sep-09 18:28N 43°30' E 010°17'0 0.1
2017-Sep-09 17:58N 43°30' E 010°17'0 0.0
2017-Sep-09 17:28N 43°30' E 010°17'0 0.0
2017-Sep-09 16:58N 43°30' E 010°17'0 0.0
2017-Sep-09 16:28N 43°30' E 010°17'0 0.0
2017-Sep-09 15:58N 43°30' E 010°17'0 0.1
2017-Sep-09 15:30N 43°30' E 010°17'0 0.2
2017-Sep-09 15:00N 43°30' E 010°17'2 4.3
2017-Sep-09 14:30N 43°30' E 010°14'611.9
2017-Sep-09 14:00N 43°26' E 010°08'612.1
2017-Sep-09 13:30N 43°21' E 010°02'611.7
2017-Sep-09 13:00N 43°18' E 009°56'612.3
2017-Sep-09 12:30N 43°16' E 009°48'612.4
2017-Sep-09 12:00N 43°14' E 009°40'612.5
2017-Sep-09 11:30N 43°12' E 009°32'612.7
2017-Sep-09 11:00N 43°09' E 009°23'712.9
2017-Sep-09 10:29N 43°07' E 009°15'  
Track history (hours):
 
Tides and Currents Weather Stations Pressure Air Temp Water Temp Dewpoint Dewpoint Depression Visibility Wind Speed Wind Dir Waves Ship Positions

Victoria M

Last reported at 2017-Sep-18 14:25 UTC. Time now 2017-Sep-22 19:12 UTC.
Position N 40°44' E 029°11'.

Length 185 m.

MMSI: 538002516.

Date/timePositionNaut miles runAvg speedWind from/ knotsBaromVisibWave heightAir tempDewpointWater temp
2017-Sep-18 14:25N 40°44' E 029°11'712.8
2017-Sep-18 13:53N 40°44' E 029°02'9412.2
2017-Sep-18 06:09N 40°30' E 026°59'3312.0
2017-Sep-18 03:26N 40°12' E 026°23'1210.4
2017-Sep-18 02:16N 40°02' E 026°15'3 9.5
2017-Sep-18 02:00N 40°01' E 026°11'3 4.9
2017-Sep-18 01:22N 40°00' E 026°08'710.3
2017-Sep-18 00:44N 39°58' E 025°60'210.6
2017-Sep-18 00:30N 39°56' E 025°57'6 9.9
2017-Sep-17 23:53N 39°51' E 025°52'4 9.8
2017-Sep-17 23:30N 39°48' E 025°50'510.2
2017-Sep-17 23:00N 39°44' E 025°46'510.9
2017-Sep-17 22:30N 39°39' E 025°43'5111.4
2017-Sep-17 18:03N 38°54' E 025°12'111.6
2017-Sep-17 17:58N 38°53' E 025°12'1711.6
2017-Sep-17 16:33N 38°38' E 025°03'3012.1
2017-Sep-17 14:03N 38°11' E 024°46'112.1
2017-Sep-17 13:59N 38°10' E 024°46'3112.1
2017-Sep-17 11:24N 37°46' E 024°22'2112.1
2017-Sep-17 09:42N 37°29' E 024°05'212.5
2017-Sep-17 09:30N 37°27' E 024°04'612.7
2017-Sep-17 09:00N 37°22' E 023°60'612.7
2017-Sep-17 08:30N 37°17' E 023°56'612.8
2017-Sep-17 08:00N 37°11' E 023°51'612.5
2017-Sep-17 07:30N 37°06' E 023°47'612.3
2017-Sep-17 07:00N 37°01' E 023°43'612.2
2017-Sep-17 06:30N 36°56' E 023°39'612.1
2017-Sep-17 06:00N 36°50' E 023°35'612.3
2017-Sep-17 05:30N 36°45' E 023°31'612.3
2017-Sep-17 05:00N 36°40' E 023°28'612.5
2017-Sep-17 04:30N 36°34' E 023°23'712.7
2017-Sep-17 03:59N 36°29' E 023°19'612.4
2017-Sep-17 03:28N 36°24' E 023°14'5212.3
2017-Sep-16 23:12N 36°21' E 022°09'313.2
2017-Sep-16 23:00N 36°21' E 022°05'713.2
2017-Sep-16 22:30N 36°21' E 021°57'613.0
2017-Sep-16 22:00N 36°20' E 021°49'1313.4
2017-Sep-16 21:01N 36°21' E 021°33'013.1
2017-Sep-16 21:00N 36°21' E 021°33'713.4
2017-Sep-16 20:30N 36°21' E 021°24'1613.1
2017-Sep-16 19:16N 36°21' E 021°04'612.9
2017-Sep-16 18:46N 36°20' E 020°56'413.0
2017-Sep-16 18:30N 36°20' E 020°52'712.7
2017-Sep-16 17:55N 36°20' E 020°43'912.8
2017-Sep-16 17:11N 36°20' E 020°31'213.0
2017-Sep-16 17:00N 36°20' E 020°28'612.8
2017-Sep-16 16:30N 36°20' E 020°20'612.7
2017-Sep-16 16:01N 36°20' E 020°12'812.7
2017-Sep-16 15:23N 36°20' E 020°03'812.8
2017-Sep-16 14:48N 36°20' E 019°53'413.1
2017-Sep-16 14:30N 36°21' E 019°48'612.9
2017-Sep-16 14:00N 36°21' E 019°40'713.0
2017-Sep-16 13:28N 36°21' E 019°32'1012.9
2017-Sep-16 12:44N 36°21' E 019°20'1112.7
2017-Sep-16 11:52N 36°21' E 019°06'612.5
2017-Sep-16 11:23N 36°21' E 018°59'912.5
2017-Sep-16 10:39N 36°21' E 018°47'212.5
2017-Sep-16 10:30N 36°21' E 018°45'3812.7
2017-Sep-16 07:32N 36°20' E 017°58'012.7
2017-Sep-16 07:30N 36°20' E 017°58'3512.4
2017-Sep-16 04:41N 36°20' E 017°15'312.5
2017-Sep-16 04:29N 36°20' E 017°11'1512.5
2017-Sep-16 03:18N 36°20' E 016°53'1512.6
2017-Sep-16 02:05N 36°20' E 016°34'212.6
2017-Sep-16 01:55N 36°20' E 016°31'512.5
2017-Sep-16 01:29N 36°20' E 016°25'2912.3
2017-Sep-15 23:05N 36°20' E 015°48'112.0
2017-Sep-15 23:00N 36°20' E 015°47'612.0
2017-Sep-15 22:29N 36°20' E 015°39'612.1
2017-Sep-15 22:00N 36°20' E 015°32'612.3
2017-Sep-15 21:30N 36°21' E 015°24'612.7
2017-Sep-15 21:00N 36°20' E 015°16'613.2
2017-Sep-15 20:30N 36°20' E 015°08'713.4
2017-Sep-15 20:00N 36°20' E 014°60'713.5
2017-Sep-15 19:30N 36°20' E 014°52'713.4
2017-Sep-15 19:00N 36°23' E 014°44'713.6
2017-Sep-15 18:30N 36°26' E 014°36'713.1
2017-Sep-15 18:00N 36°29' E 014°29'613.0
2017-Sep-15 17:30N 36°32' E 014°22'612.9
2017-Sep-15 17:00N 36°34' E 014°15'713.2
2017-Sep-15 16:30N 36°37' E 014°07'713.5
2017-Sep-15 16:00N 36°41' E 013°60'713.5
2017-Sep-15 15:30N 36°44' E 013°53'713.3
2017-Sep-15 15:00N 36°47' E 013°45'713.3
2017-Sep-15 14:30N 36°50' E 013°38'913.1
2017-Sep-15 13:51N 36°54' E 013°28'513.2
2017-Sep-15 13:30N 36°56' E 013°23'612.9
2017-Sep-15 13:00N 36°59' E 013°16'612.6
2017-Sep-15 12:29N 37°02' E 013°09'2412.8
2017-Sep-15 10:38N 37°13' E 012°43'4112.5
2017-Sep-15 07:23N 37°38' E 012°02'  
2017-Sep-12 22:54N 42°51' E 009°60'5 9.0
2017-Sep-12 22:23N 42°55' E 010°02'3 8.4
2017-Sep-12 22:00N 42°58' E 010°03'3 5.2
2017-Sep-12 21:30N 43°01' E 010°04'5 9.4
2017-Sep-12 21:00N 43°05' E 010°07'611.7
2017-Sep-12 20:30N 43°11' E 010°10'611.0
2017-Sep-12 20:00N 43°16' E 010°12'510.5
2017-Sep-12 19:30N 43°21' E 010°15'510.3
2017-Sep-12 19:00N 43°26' E 010°15'2 5.0
2017-Sep-12 18:30N 43°28' E 010°15'1 1.1
2017-Sep-12 18:00N 43°28' E 010°15'2 4.7
2017-Sep-12 17:30N 43°26' E 010°14'1 1.0
2017-Sep-12 17:00N 43°26' E 010°15'0 1.0
2017-Sep-12 16:30N 43°26' E 010°15'0 0.8
2017-Sep-12 16:00N 43°27' E 010°15'0 0.9
2017-Sep-12 15:30N 43°27' E 010°16'0 0.6
2017-Sep-12 15:00N 43°27' E 010°16'1 1.4
2017-Sep-12 14:30N 43°28' E 010°16'1 2.3
2017-Sep-12 14:00N 43°29' E 010°16'2 3.9
2017-Sep-12 13:30N 43°27' E 010°15'1 3.0
2017-Sep-12 13:00N 43°26' E 010°15'1 2.4
2017-Sep-12 12:30N 43°27' E 010°16'1 2.4
2017-Sep-12 12:00N 43°28' E 010°16'1 2.3
2017-Sep-12 11:30N 43°29' E 010°17'2 4.9
2017-Sep-12 11:00N 43°27' E 010°16'1 2.4
2017-Sep-12 10:30N 43°25' E 010°15'1 2.7
2017-Sep-12 10:00N 43°27' E 010°16'1 2.3
2017-Sep-12 09:30N 43°28' E 010°16'2 3.4
2017-Sep-12 09:00N 43°30' E 010°17'1 1.1
2017-Sep-12 08:26N 43°30' E 010°17'0 0.2
2017-Sep-12 07:59N 43°30' E 010°17'0 0.1
2017-Sep-12 07:26N 43°30' E 010°17'0 0.0
2017-Sep-12 06:59N 43°30' E 010°17'0 0.0
2017-Sep-12 06:29N 43°30' E 010°17'0 0.1
2017-Sep-12 05:56N 43°30' E 010°17'0 0.1
2017-Sep-12 05:29N 43°30' E 010°17'0 0.4
2017-Sep-12 05:00N 43°30' E 010°17'1 1.2
2017-Sep-12 04:28N 43°30' E 010°18'0 0.3
2017-Sep-12 03:58N 43°30' E 010°18'0 0.3
2017-Sep-12 03:28N 43°30' E 010°17'0 0.1
2017-Sep-12 02:58N 43°30' E 010°17'0 0.2
2017-Sep-12 02:25N 43°30' E 010°17'0 0.1
2017-Sep-12 01:55N 43°30' E 010°17'0 0.1
2017-Sep-12 01:28N 43°30' E 010°17'0 0.0
2017-Sep-12 00:58N 43°30' E 010°17'0 0.2
2017-Sep-12 00:28N 43°30' E 010°17'0 0.1
2017-Sep-11 23:58N 43°30' E 010°17'0 0.0
2017-Sep-11 23:28N 43°30' E 010°17'0 0.1
2017-Sep-11 22:58N 43°30' E 010°17'0 0.1
2017-Sep-11 22:28N 43°30' E 010°17'0 0.0
2017-Sep-11 21:58N 43°30' E 010°17'0 0.0
2017-Sep-11 21:28N 43°30' E 010°17'0 0.0
2017-Sep-11 20:58N 43°30' E 010°17'0 0.0
2017-Sep-11 20:25N 43°30' E 010°17'0 0.0
2017-Sep-11 19:55N 43°30' E 010°17'0 0.0
2017-Sep-11 19:28N 43°30' E 010°17'0 0.0
2017-Sep-11 18:55N 43°30' E 010°17'0 0.0
2017-Sep-11 18:28N 43°30' E 010°17'0 0.0
2017-Sep-11 17:58N 43°30' E 010°17'0 0.0
2017-Sep-11 17:28N 43°30' E 010°17'0 0.0
2017-Sep-11 16:49N 43°30' E 010°17'0 0.1
2017-Sep-11 16:28N 43°30' E 010°17'0 0.0
2017-Sep-11 15:55N 43°30' E 010°17'0 0.0
2017-Sep-11 15:28N 43°30' E 010°17'0 0.0
2017-Sep-11 14:55N 43°30' E 010°17'0 0.0
2017-Sep-11 14:28N 43°30' E 010°17'0 0.0
2017-Sep-11 13:55N 43°30' E 010°17'0 0.0
2017-Sep-11 13:25N 43°30' E 010°17'0 0.0
2017-Sep-11 12:58N 43°30' E 010°17'0 0.1
2017-Sep-11 12:28N 43°30' E 010°17'0 0.0
2017-Sep-11 11:58N 43°30' E 010°17'0 0.0
2017-Sep-11 11:28N 43°30' E 010°17'0 0.0
2017-Sep-11 10:58N 43°30' E 010°17'0 0.0
2017-Sep-11 10:28N 43°30' E 010°17'0 0.1
2017-Sep-11 09:58N 43°30' E 010°17'0 0.2
2017-Sep-11 09:28N 43°30' E 010°17'0 0.0
2017-Sep-11 08:58N 43°30' E 010°17'0 0.0
2017-Sep-11 08:25N 43°30' E 010°17'0 0.0
2017-Sep-11 07:58N 43°30' E 010°17'0 0.0
2017-Sep-11 07:28N 43°30' E 010°17'0 0.1
2017-Sep-11 06:58N 43°30' E 010°17'0 0.0
2017-Sep-11 06:25N 43°30' E 010°17'0 0.0
2017-Sep-11 05:58N 43°30' E 010°17'0 0.1
2017-Sep-11 05:13N 43°30' E 010°17'0 0.1
2017-Sep-11 04:58N 43°30' E 010°17'0 0.0
2017-Sep-11 04:28N 43°30' E 010°17'0 0.1
2017-Sep-11 03:58N 43°30' E 010°17'0 0.1
2017-Sep-11 03:28N 43°30' E 010°17'0 0.0
2017-Sep-11 02:58N 43°30' E 010°17'0 0.3
2017-Sep-11 02:28N 43°30' E 010°17'0 0.0
2017-Sep-11 01:58N 43°30' E 010°17'0 0.0
2017-Sep-11 01:28N 43°30' E 010°17'0 0.0
2017-Sep-11 00:58N 43°30' E 010°17'0 0.0
2017-Sep-11 00:28N 43°30' E 010°17'0 0.0
2017-Sep-10 23:58N 43°30' E 010°17'0 0.0
2017-Sep-10 23:28N 43°30' E 010°17'0 0.0
2017-Sep-10 22:58N 43°30' E 010°17'0 0.1
2017-Sep-10 22:28N 43°30' E 010°17'0 0.1
2017-Sep-10 21:58N 43°30' E 010°17'0 0.1
2017-Sep-10 21:25N 43°30' E 010°17'0 0.1
2017-Sep-10 20:58N 43°30' E 010°17'0 0.0
2017-Sep-10 20:25N 43°30' E 010°17'0 0.0
2017-Sep-10 19:58N 43°30' E 010°17'0 0.0
2017-Sep-10 19:28N 43°30' E 010°17'0 0.0
2017-Sep-10 18:58N 43°30' E 010°17'0 0.0
2017-Sep-10 18:28N 43°30' E 010°17'0 0.1
2017-Sep-10 17:58N 43°30' E 010°17'0 0.0
2017-Sep-10 17:25N 43°30' E 010°17'0 0.1
2017-Sep-10 16:58N 43°30' E 010°17'0 0.1
2017-Sep-10 16:28N 43°30' E 010°17'0 0.1
2017-Sep-10 15:58N 43°30' E 010°17'0 0.0
2017-Sep-10 15:25N 43°30' E 010°17'0 0.0
2017-Sep-10 14:55N 43°30' E 010°17'0 0.0
2017-Sep-10 13:58N 43°30' E 010°17'0 0.2
2017-Sep-10 13:28N 43°30' E 010°17'0 0.0
2017-Sep-10 12:58N 43°30' E 010°17'0 0.0
2017-Sep-10 12:28N 43°30' E 010°17'0 0.1
2017-Sep-10 11:58N 43°30' E 010°17'0 0.0
2017-Sep-10 11:28N 43°30' E 010°17'0 0.0
2017-Sep-10 10:55N 43°30' E 010°17'0 0.1
2017-Sep-10 10:28N 43°30' E 010°17'0 0.2
2017-Sep-10 09:58N 43°30' E 010°17'0 0.1
2017-Sep-10 09:28N 43°30' E 010°17'0 0.0
2017-Sep-10 08:58N 43°30' E 010°17'0 0.0
2017-Sep-10 08:28N 43°30' E 010°17'0 0.0
2017-Sep-10 07:58N 43°30' E 010°17'0 0.0
2017-Sep-10 07:28N 43°30' E 010°17'0 0.0
2017-Sep-10 06:58N 43°30' E 010°17'0 0.1
2017-Sep-10 06:28N 43°30' E 010°17'0 0.0
2017-Sep-10 05:58N 43°30' E 010°17'0 0.2
2017-Sep-10 05:28N 43°30' E 010°17'0 0.1
2017-Sep-10 04:58N 43°30' E 010°17'0 0.0
2017-Sep-10 04:25N 43°30' E 010°17'0 0.0
2017-Sep-10 03:58N 43°30' E 010°17'0 0.0
2017-Sep-10 03:28N 43°30' E 010°17'0 0.1
2017-Sep-10 02:58N 43°30' E 010°17'0 0.0
2017-Sep-10 02:28N 43°30' E 010°17'0 0.1
2017-Sep-10 01:58N 43°30' E 010°17'0 0.0
2017-Sep-10 01:28N 43°30' E 010°17'0 0.1
2017-Sep-10 00:58N 43°30' E 010°17'0 0.0
2017-Sep-10 00:28N 43°30' E 010°17'0 0.1
2017-Sep-09 23:58N 43°30' E 010°17'0 0.1
2017-Sep-09 23:28N 43°30' E 010°17'0 0.0
2017-Sep-09 22:58N 43°30' E 010°17'0 0.0
2017-Sep-09 22:28N 43°30' E 010°17'0 0.1
2017-Sep-09 21:58N 43°30' E 010°17'0 0.0
2017-Sep-09 21:28N 43°30' E 010°17'0 0.0
2017-Sep-09 20:55N 43°30' E 010°17'0 0.0
2017-Sep-09 20:28N 43°30' E 010°17'0 0.0
2017-Sep-09 19:58N 43°30' E 010°17'0 0.0
2017-Sep-09 19:25N 43°30' E 010°17'0 0.0
2017-Sep-09 18:49N 43°30' E 010°17'0 0.1
2017-Sep-09 18:28N 43°30' E 010°17'0 0.1
2017-Sep-09 17:58N 43°30' E 010°17'0 0.0
2017-Sep-09 17:28N 43°30' E 010°17'0 0.0
2017-Sep-09 16:58N 43°30' E 010°17'0 0.0
2017-Sep-09 16:28N 43°30' E 010°17'0 0.0
2017-Sep-09 15:58N 43°30' E 010°17'0 0.1
2017-Sep-09 15:30N 43°30' E 010°17'0 0.2
2017-Sep-09 15:00N 43°30' E 010°17'2 4.3
2017-Sep-09 14:30N 43°30' E 010°14'611.9
2017-Sep-09 14:00N 43°26' E 010°08'612.1
2017-Sep-09 13:30N 43°21' E 010°02'611.7
2017-Sep-09 13:00N 43°18' E 009°56'612.3
2017-Sep-09 12:30N 43°16' E 009°48'612.4
2017-Sep-09 12:00N 43°14' E 009°40'612.5
2017-Sep-09 11:30N 43°12' E 009°32'612.7
2017-Sep-09 11:00N 43°09' E 009°23'712.9
2017-Sep-09 10:29N 43°07' E 009°15'  

Dump ship's entire track history